sensor_id;sensor_type;location;lat;lon;timestamp;P1;durP1;ratioP1;P2;durP2;ratioP2
23670;SDS011;12012;51.998;7.614;2022-12-24T00:00:28;20.10;;;4.28;;
23670;SDS011;12012;51.998;7.614;2022-12-24T00:02:53;13.25;;;3.80;;
23670;SDS011;12012;51.998;7.614;2022-12-24T00:05:19;22.52;;;4.35;;
23670;SDS011;12012;51.998;7.614;2022-12-24T00:07:45;18.48;;;4.50;;
23670;SDS011;12012;51.998;7.614;2022-12-24T00:10:10;20.27;;;4.43;;
23670;SDS011;12012;51.998;7.614;2022-12-24T00:12:36;22.50;;;4.55;;
23670;SDS011;12012;51.998;7.614;2022-12-24T00:15:03;22.15;;;4.85;;
23670;SDS011;12012;51.998;7.614;2022-12-24T00:17:29;21.10;;;4.57;;
23670;SDS011;12012;51.998;7.614;2022-12-24T00:19:54;17.88;;;3.90;;
23670;SDS011;12012;51.998;7.614;2022-12-24T00:22:20;15.50;;;4.20;;
23670;SDS011;12012;51.998;7.614;2022-12-24T00:24:45;22.95;;;4.63;;
23670;SDS011;12012;51.998;7.614;2022-12-24T00:27:11;13.98;;;3.53;;
23670;SDS011;12012;51.998;7.614;2022-12-24T00:29:36;19.95;;;3.90;;
23670;SDS011;12012;51.998;7.614;2022-12-24T00:32:02;22.63;;;4.57;;
23670;SDS011;12012;51.998;7.614;2022-12-24T00:34:31;14.07;;;4.07;;
23670;SDS011;12012;51.998;7.614;2022-12-24T00:36:57;20.38;;;4.07;;
23670;SDS011;12012;51.998;7.614;2022-12-24T00:39:23;27.15;;;5.05;;
23670;SDS011;12012;51.998;7.614;2022-12-24T00:41:48;21.05;;;3.55;;
23670;SDS011;12012;51.998;7.614;2022-12-24T00:44:14;20.35;;;3.97;;
23670;SDS011;12012;51.998;7.614;2022-12-24T00:46:40;29.90;;;4.68;;
23670;SDS011;12012;51.998;7.614;2022-12-24T00:49:06;23.38;;;5.35;;
23670;SDS011;12012;51.998;7.614;2022-12-24T00:51:33;24.75;;;4.50;;
23670;SDS011;12012;51.998;7.614;2022-12-24T00:53:59;26.73;;;5.03;;
23670;SDS011;12012;51.998;7.614;2022-12-24T00:56:25;23.08;;;4.43;;
23670;SDS011;12012;51.998;7.614;2022-12-24T00:58:51;25.70;;;4.97;;
23670;SDS011;12012;51.998;7.614;2022-12-24T01:01:17;30.10;;;5.05;;
23670;SDS011;12012;51.998;7.614;2022-12-24T01:03:43;28.85;;;5.57;;
23670;SDS011;12012;51.998;7.614;2022-12-24T01:06:10;33.85;;;6.30;;
23670;SDS011;12012;51.998;7.614;2022-12-24T01:08:40;31.83;;;5.55;;
23670;SDS011;12012;51.998;7.614;2022-12-24T01:11:06;35.53;;;5.60;;
23670;SDS011;12012;51.998;7.614;2022-12-24T01:13:34;31.88;;;5.20;;
23670;SDS011;12012;51.998;7.614;2022-12-24T01:16:00;36.20;;;6.40;;
23670;SDS011;12012;51.998;7.614;2022-12-24T01:18:26;27.17;;;4.75;;
23670;SDS011;12012;51.998;7.614;2022-12-24T01:20:55;34.42;;;6.03;;
23670;SDS011;12012;51.998;7.614;2022-12-24T01:23:26;36.53;;;5.90;;
23670;SDS011;12012;51.998;7.614;2022-12-24T01:25:52;26.05;;;5.15;;
23670;SDS011;12012;51.998;7.614;2022-12-24T01:28:18;33.63;;;6.22;;
23670;SDS011;12012;51.998;7.614;2022-12-24T01:30:45;23.92;;;5.30;;
23670;SDS011;12012;51.998;7.614;2022-12-24T01:33:11;30.00;;;5.88;;
23670;SDS011;12012;51.998;7.614;2022-12-24T01:35:41;36.80;;;7.25;;
23670;SDS011;12012;51.998;7.614;2022-12-24T01:38:07;31.98;;;5.80;;
23670;SDS011;12012;51.998;7.614;2022-12-24T01:40:33;32.80;;;6.18;;
23670;SDS011;12012;51.998;7.614;2022-12-24T01:43:18;30.10;;;5.90;;
23670;SDS011;12012;51.998;7.614;2022-12-24T01:53:46;33.83;;;6.95;;
23670;SDS011;12012;51.998;7.614;2022-12-24T01:56:16;32.92;;;6.22;;
23670;SDS011;12012;51.998;7.614;2022-12-24T01:58:45;31.63;;;5.80;;
23670;SDS011;12012;51.998;7.614;2022-12-24T02:01:14;25.40;;;5.55;;
23670;SDS011;12012;51.998;7.614;2022-12-24T02:03:40;32.80;;;5.57;;
23670;SDS011;12012;51.998;7.614;2022-12-24T02:06:06;27.05;;;5.35;;
23670;SDS011;12012;51.998;7.614;2022-12-24T02:08:33;32.47;;;5.50;;
23670;SDS011;12012;51.998;7.614;2022-12-24T02:14:03;34.30;;;7.03;;
23670;SDS011;12012;51.998;7.614;2022-12-24T02:21:56;34.05;;;6.43;;
23670;SDS011;12012;51.998;7.614;2022-12-24T02:27:54;38.75;;;7.22;;
23670;SDS011;12012;51.998;7.614;2022-12-24T02:40:51;39.83;;;8.02;;
23670;SDS011;12012;51.998;7.614;2022-12-24T02:43:22;39.42;;;7.53;;
23670;SDS011;12012;51.998;7.614;2022-12-24T02:45:54;34.88;;;7.40;;
23670;SDS011;12012;51.998;7.614;2022-12-24T02:48:23;38.72;;;6.80;;
23670;SDS011;12012;51.998;7.614;2022-12-24T02:50:54;38.22;;;7.35;;
23670;SDS011;12012;51.998;7.614;2022-12-24T02:53:30;44.63;;;7.50;;
23670;SDS011;12012;51.998;7.614;2022-12-24T02:55:59;35.92;;;6.65;;
23670;SDS011;12012;51.998;7.614;2022-12-24T03:01:34;37.35;;;6.72;;
23670;SDS011;12012;51.998;7.614;2022-12-24T03:12:27;29.30;;;6.70;;
23670;SDS011;12012;51.998;7.614;2022-12-24T03:17:23;45.80;;;7.28;;
23670;SDS011;12012;51.998;7.614;2022-12-24T03:19:50;49.17;;;8.18;;
23670;SDS011;12012;51.998;7.614;2022-12-24T03:22:18;34.55;;;7.15;;
23670;SDS011;12012;51.998;7.614;2022-12-24T03:24:44;39.35;;;7.60;;
23670;SDS011;12012;51.998;7.614;2022-12-24T03:27:09;42.90;;;7.88;;
23670;SDS011;12012;51.998;7.614;2022-12-24T03:29:37;51.53;;;8.85;;
23670;SDS011;12012;51.998;7.614;2022-12-24T03:32:04;34.67;;;7.25;;
23670;SDS011;12012;51.998;7.614;2022-12-24T03:34:29;39.22;;;7.63;;
23670;SDS011;12012;51.998;7.614;2022-12-24T03:36:55;38.03;;;7.50;;
23670;SDS011;12012;51.998;7.614;2022-12-24T03:39:21;36.90;;;8.32;;
23670;SDS011;12012;51.998;7.614;2022-12-24T03:41:47;45.40;;;9.05;;
23670;SDS011;12012;51.998;7.614;2022-12-24T03:44:12;37.85;;;7.53;;
23670;SDS011;12012;51.998;7.614;2022-12-24T03:46:38;36.03;;;7.35;;
23670;SDS011;12012;51.998;7.614;2022-12-24T03:49:04;37.03;;;7.22;;
23670;SDS011;12012;51.998;7.614;2022-12-24T03:51:29;44.35;;;7.47;;
23670;SDS011;12012;51.998;7.614;2022-12-24T03:53:57;35.80;;;7.30;;
23670;SDS011;12012;51.998;7.614;2022-12-24T03:56:23;49.17;;;7.30;;
23670;SDS011;12012;51.998;7.614;2022-12-24T03:58:50;34.85;;;6.75;;
23670;SDS011;12012;51.998;7.614;2022-12-24T04:01:16;29.25;;;7.05;;
23670;SDS011;12012;51.998;7.614;2022-12-24T04:03:42;37.92;;;7.18;;
23670;SDS011;12012;51.998;7.614;2022-12-24T04:06:09;35.63;;;6.70;;
23670;SDS011;12012;51.998;7.614;2022-12-24T04:08:37;41.88;;;7.05;;
23670;SDS011;12012;51.998;7.614;2022-12-24T04:11:03;39.75;;;6.32;;
23670;SDS011;12012;51.998;7.614;2022-12-24T04:13:29;41.17;;;7.95;;
23670;SDS011;12012;51.998;7.614;2022-12-24T04:15:56;47.63;;;7.50;;
23670;SDS011;12012;51.998;7.614;2022-12-24T04:18:26;34.57;;;6.43;;
23670;SDS011;12012;51.998;7.614;2022-12-24T04:20:52;38.85;;;6.97;;
23670;SDS011;12012;51.998;7.614;2022-12-24T04:23:18;34.08;;;6.28;;
23670;SDS011;12012;51.998;7.614;2022-12-24T04:25:44;34.63;;;7.13;;
23670;SDS011;12012;51.998;7.614;2022-12-24T04:28:10;41.60;;;7.38;;
23670;SDS011;12012;51.998;7.614;2022-12-24T04:30:39;41.83;;;7.15;;
23670;SDS011;12012;51.998;7.614;2022-12-24T04:33:04;40.83;;;6.78;;
23670;SDS011;12012;51.998;7.614;2022-12-24T04:35:30;35.35;;;6.60;;
23670;SDS011;12012;51.998;7.614;2022-12-24T04:37:56;39.28;;;6.50;;
23670;SDS011;12012;51.998;7.614;2022-12-24T04:40:22;34.75;;;6.20;;
23670;SDS011;12012;51.998;7.614;2022-12-24T04:42:48;35.45;;;7.38;;
23670;SDS011;12012;51.998;7.614;2022-12-24T04:45:14;38.50;;;7.00;;
23670;SDS011;12012;51.998;7.614;2022-12-24T04:47:40;35.17;;;7.03;;
23670;SDS011;12012;51.998;7.614;2022-12-24T04:50:06;45.75;;;7.10;;
23670;SDS011;12012;51.998;7.614;2022-12-24T04:52:33;34.42;;;7.20;;
23670;SDS011;12012;51.998;7.614;2022-12-24T04:54:58;38.15;;;7.22;;
23670;SDS011;12012;51.998;7.614;2022-12-24T04:57:24;33.90;;;7.75;;
23670;SDS011;12012;51.998;7.614;2022-12-24T04:59:49;43.53;;;7.93;;
23670;SDS011;12012;51.998;7.614;2022-12-24T05:02:15;32.83;;;7.50;;
23670;SDS011;12012;51.998;7.614;2022-12-24T05:04:40;29.38;;;7.07;;
23670;SDS011;12012;51.998;7.614;2022-12-24T05:07:06;42.33;;;8.10;;
23670;SDS011;12012;51.998;7.614;2022-12-24T05:09:32;42.10;;;8.60;;
23670;SDS011;12012;51.998;7.614;2022-12-24T05:11:57;29.63;;;7.30;;
23670;SDS011;12012;51.998;7.614;2022-12-24T05:14:23;37.47;;;8.35;;
23670;SDS011;12012;51.998;7.614;2022-12-24T05:16:48;46.13;;;7.55;;
23670;SDS011;12012;51.998;7.614;2022-12-24T05:19:14;47.75;;;7.75;;
23670;SDS011;12012;51.998;7.614;2022-12-24T05:21:39;36.60;;;7.93;;
23670;SDS011;12012;51.998;7.614;2022-12-24T05:24:05;32.78;;;7.97;;
23670;SDS011;12012;51.998;7.614;2022-12-24T05:26:56;42.47;;;8.88;;
23670;SDS011;12012;51.998;7.614;2022-12-24T05:29:23;39.63;;;8.52;;
23670;SDS011;12012;51.998;7.614;2022-12-24T05:31:49;35.22;;;8.70;;
23670;SDS011;12012;51.998;7.614;2022-12-24T05:34:15;42.17;;;9.52;;
23670;SDS011;12012;51.998;7.614;2022-12-24T05:36:41;46.90;;;10.32;;
23670;SDS011;12012;51.998;7.614;2022-12-24T05:39:09;44.47;;;10.90;;
23670;SDS011;12012;51.998;7.614;2022-12-24T05:41:38;36.42;;;9.68;;
23670;SDS011;12012;51.998;7.614;2022-12-24T05:44:03;40.65;;;11.60;;
23670;SDS011;12012;51.998;7.614;2022-12-24T05:46:29;43.85;;;10.80;;
23670;SDS011;12012;51.998;7.614;2022-12-24T05:48:54;48.60;;;11.93;;
23670;SDS011;12012;51.998;7.614;2022-12-24T05:51:21;49.95;;;12.80;;
23670;SDS011;12012;51.998;7.614;2022-12-24T05:53:47;45.38;;;11.38;;
23670;SDS011;12012;51.998;7.614;2022-12-24T05:56:14;54.50;;;12.82;;
23670;SDS011;12012;51.998;7.614;2022-12-24T05:58:42;42.78;;;11.30;;
23670;SDS011;12012;51.998;7.614;2022-12-24T06:01:09;44.70;;;11.68;;
23670;SDS011;12012;51.998;7.614;2022-12-24T06:03:36;55.92;;;12.65;;
23670;SDS011;12012;51.998;7.614;2022-12-24T06:08:29;45.60;;;12.90;;
23670;SDS011;12012;51.998;7.614;2022-12-24T06:10:56;47.85;;;11.88;;
23670;SDS011;12012;51.998;7.614;2022-12-24T06:13:24;50.10;;;11.45;;
23670;SDS011;12012;51.998;7.614;2022-12-24T06:15:53;47.35;;;12.73;;
23670;SDS011;12012;51.998;7.614;2022-12-24T06:18:19;41.65;;;12.27;;
23670;SDS011;12012;51.998;7.614;2022-12-24T06:20:45;49.75;;;12.48;;
23670;SDS011;12012;51.998;7.614;2022-12-24T06:23:14;49.42;;;12.82;;
23670;SDS011;12012;51.998;7.614;2022-12-24T06:25:40;42.47;;;11.68;;
23670;SDS011;12012;51.998;7.614;2022-12-24T06:28:06;45.90;;;12.73;;
23670;SDS011;12012;51.998;7.614;2022-12-24T06:30:31;54.88;;;13.10;;
23670;SDS011;12012;51.998;7.614;2022-12-24T06:32:57;57.85;;;13.40;;
23670;SDS011;12012;51.998;7.614;2022-12-24T06:35:22;49.22;;;11.50;;
23670;SDS011;12012;51.998;7.614;2022-12-24T06:37:48;48.83;;;12.50;;
23670;SDS011;12012;51.998;7.614;2022-12-24T06:40:13;55.42;;;13.27;;
23670;SDS011;12012;51.998;7.614;2022-12-24T06:42:39;54.17;;;12.52;;
23670;SDS011;12012;51.998;7.614;2022-12-24T06:45:04;55.70;;;13.02;;
23670;SDS011;12012;51.998;7.614;2022-12-24T06:47:30;60.40;;;12.40;;
23670;SDS011;12012;51.998;7.614;2022-12-24T06:49:56;46.75;;;12.77;;
23670;SDS011;12012;51.998;7.614;2022-12-24T06:52:21;52.88;;;12.43;;
23670;SDS011;12012;51.998;7.614;2022-12-24T06:54:47;47.50;;;11.65;;
23670;SDS011;12012;51.998;7.614;2022-12-24T06:57:13;53.25;;;13.20;;
23670;SDS011;12012;51.998;7.614;2022-12-24T06:59:38;47.30;;;12.13;;
23670;SDS011;12012;51.998;7.614;2022-12-24T07:02:04;51.22;;;12.68;;
23670;SDS011;12012;51.998;7.614;2022-12-24T07:04:29;64.47;;;13.00;;
23670;SDS011;12012;51.998;7.614;2022-12-24T07:06:55;56.17;;;13.43;;
23670;SDS011;12012;51.998;7.614;2022-12-24T07:09:20;46.78;;;12.55;;
23670;SDS011;12012;51.998;7.614;2022-12-24T07:11:46;49.47;;;12.25;;
23670;SDS011;12012;51.998;7.614;2022-12-24T07:14:11;52.55;;;12.63;;
23670;SDS011;12012;51.998;7.614;2022-12-24T07:16:37;60.25;;;12.82;;
23670;SDS011;12012;51.998;7.614;2022-12-24T07:19:02;55.08;;;12.88;;
23670;SDS011;12012;51.998;7.614;2022-12-24T07:21:28;51.25;;;13.77;;
23670;SDS011;12012;51.998;7.614;2022-12-24T07:23:53;63.85;;;13.35;;
23670;SDS011;12012;51.998;7.614;2022-12-24T07:26:19;50.65;;;12.10;;
23670;SDS011;12012;51.998;7.614;2022-12-24T07:28:45;49.55;;;13.75;;
23670;SDS011;12012;51.998;7.614;2022-12-24T07:31:10;58.58;;;12.85;;
23670;SDS011;12012;51.998;7.614;2022-12-24T07:33:36;47.55;;;13.10;;
23670;SDS011;12012;51.998;7.614;2022-12-24T07:36:02;52.17;;;12.18;;
23670;SDS011;12012;51.998;7.614;2022-12-24T07:38:30;47.90;;;12.55;;
23670;SDS011;12012;51.998;7.614;2022-12-24T07:40:57;52.47;;;12.73;;
23670;SDS011;12012;51.998;7.614;2022-12-24T07:43:23;61.70;;;12.80;;
23670;SDS011;12012;51.998;7.614;2022-12-24T07:45:49;45.10;;;11.68;;
23670;SDS011;12012;51.998;7.614;2022-12-24T07:48:15;42.80;;;11.85;;
23670;SDS011;12012;51.998;7.614;2022-12-24T07:50:41;47.67;;;12.48;;
23670;SDS011;12012;51.998;7.614;2022-12-24T07:53:07;39.13;;;11.27;;
23670;SDS011;12012;51.998;7.614;2022-12-24T07:55:32;38.08;;;10.70;;
23670;SDS011;12012;51.998;7.614;2022-12-24T07:57:58;37.88;;;12.25;;
23670;SDS011;12012;51.998;7.614;2022-12-24T08:00:23;49.63;;;12.20;;
23670;SDS011;12012;51.998;7.614;2022-12-24T08:02:49;44.67;;;13.63;;
23670;SDS011;12012;51.998;7.614;2022-12-24T08:05:14;45.78;;;12.05;;
23670;SDS011;12012;51.998;7.614;2022-12-24T08:07:40;45.78;;;12.93;;
23670;SDS011;12012;51.998;7.614;2022-12-24T08:10:05;45.38;;;13.32;;
23670;SDS011;12012;51.998;7.614;2022-12-24T08:12:31;36.83;;;11.32;;
23670;SDS011;12012;51.998;7.614;2022-12-24T08:14:57;47.08;;;12.88;;
23670;SDS011;12012;51.998;7.614;2022-12-24T08:17:22;41.28;;;12.07;;
23670;SDS011;12012;51.998;7.614;2022-12-24T08:19:48;39.80;;;10.98;;
23670;SDS011;12012;51.998;7.614;2022-12-24T08:22:14;49.92;;;12.07;;
23670;SDS011;12012;51.998;7.614;2022-12-24T08:24:40;51.03;;;12.10;;
23670;SDS011;12012;51.998;7.614;2022-12-24T08:27:05;51.15;;;11.90;;
23670;SDS011;12012;51.998;7.614;2022-12-24T08:29:31;46.05;;;11.32;;
23670;SDS011;12012;51.998;7.614;2022-12-24T08:31:56;43.63;;;11.60;;
23670;SDS011;12012;51.998;7.614;2022-12-24T08:34:22;42.42;;;11.60;;
23670;SDS011;12012;51.998;7.614;2022-12-24T08:36:47;41.95;;;11.18;;
23670;SDS011;12012;51.998;7.614;2022-12-24T08:39:13;33.75;;;11.30;;
23670;SDS011;12012;51.998;7.614;2022-12-24T08:41:38;42.97;;;12.15;;
23670;SDS011;12012;51.998;7.614;2022-12-24T08:44:04;38.80;;;10.38;;
23670;SDS011;12012;51.998;7.614;2022-12-24T08:46:30;42.00;;;11.80;;
23670;SDS011;12012;51.998;7.614;2022-12-24T08:48:56;46.05;;;11.30;;
23670;SDS011;12012;51.998;7.614;2022-12-24T08:51:21;39.92;;;11.25;;
23670;SDS011;12012;51.998;7.614;2022-12-24T08:53:47;34.45;;;10.77;;
23670;SDS011;12012;51.998;7.614;2022-12-24T08:56:12;44.35;;;11.55;;
23670;SDS011;12012;51.998;7.614;2022-12-24T08:58:38;56.58;;;13.48;;
23670;SDS011;12012;51.998;7.614;2022-12-24T09:01:37;40.35;;;10.57;;
23670;SDS011;12012;51.998;7.614;2022-12-24T09:03:56;47.42;;;11.80;;
23670;SDS011;12012;51.998;7.614;2022-12-24T09:06:22;41.75;;;11.07;;
23670;SDS011;12012;51.998;7.614;2022-12-24T09:08:47;36.30;;;9.52;;
23670;SDS011;12012;51.998;7.614;2022-12-24T09:11:14;46.80;;;13.05;;
23670;SDS011;12012;51.998;7.614;2022-12-24T09:13:42;43.92;;;11.05;;
23670;SDS011;12012;51.998;7.614;2022-12-24T09:16:09;43.65;;;10.10;;
23670;SDS011;12012;51.998;7.614;2022-12-24T09:18:35;42.70;;;10.40;;
23670;SDS011;12012;51.998;7.614;2022-12-24T09:21:08;33.35;;;9.40;;
23670;SDS011;12012;51.998;7.614;2022-12-24T09:23:38;39.55;;;9.63;;
23670;SDS011;12012;51.998;7.614;2022-12-24T09:26:05;40.00;;;10.20;;
23670;SDS011;12012;51.998;7.614;2022-12-24T09:28:32;35.78;;;9.52;;
23670;SDS011;12012;51.998;7.614;2022-12-24T09:30:58;34.88;;;10.38;;
23670;SDS011;12012;51.998;7.614;2022-12-24T09:33:26;34.72;;;9.43;;
23670;SDS011;12012;51.998;7.614;2022-12-24T09:35:53;36.35;;;9.85;;
23670;SDS011;12012;51.998;7.614;2022-12-24T09:38:19;33.92;;;8.27;;
23670;SDS011;12012;51.998;7.614;2022-12-24T09:40:45;30.00;;;8.70;;
23670;SDS011;12012;51.998;7.614;2022-12-24T09:43:22;35.55;;;8.93;;
23670;SDS011;12012;51.998;7.614;2022-12-24T09:46:32;27.77;;;8.27;;
23670;SDS011;12012;51.998;7.614;2022-12-24T09:48:52;30.80;;;8.45;;
23670;SDS011;12012;51.998;7.614;2022-12-24T09:51:28;33.25;;;7.88;;
23670;SDS011;12012;51.998;7.614;2022-12-24T09:54:20;34.28;;;7.70;;
23670;SDS011;12012;51.998;7.614;2022-12-24T09:56:50;26.00;;;7.60;;
23670;SDS011;12012;51.998;7.614;2022-12-24T09:59:21;35.90;;;8.75;;
23670;SDS011;12012;51.998;7.614;2022-12-24T10:01:50;30.27;;;8.15;;
23670;SDS011;12012;51.998;7.614;2022-12-24T10:04:19;28.48;;;7.30;;
23670;SDS011;12012;51.998;7.614;2022-12-24T10:07:07;29.60;;;6.95;;
23670;SDS011;12012;51.998;7.614;2022-12-24T10:09:55;28.60;;;6.63;;
23670;SDS011;12012;51.998;7.614;2022-12-24T10:15:45;29.90;;;7.15;;
23670;SDS011;12012;51.998;7.614;2022-12-24T10:23:06;29.65;;;7.78;;
23670;SDS011;12012;51.998;7.614;2022-12-24T10:29:11;31.90;;;8.15;;
23670;SDS011;12012;51.998;7.614;2022-12-24T10:31:22;34.13;;;8.35;;
23670;SDS011;12012;51.998;7.614;2022-12-24T10:34:20;35.30;;;7.78;;
23670;SDS011;12012;51.998;7.614;2022-12-24T10:36:47;38.92;;;8.98;;
23670;SDS011;12012;51.998;7.614;2022-12-24T10:39:20;28.30;;;7.70;;
23670;SDS011;12012;51.998;7.614;2022-12-24T10:41:49;36.55;;;9.80;;
23670;SDS011;12012;51.998;7.614;2022-12-24T10:44:17;39.42;;;8.73;;
23670;SDS011;12012;51.998;7.614;2022-12-24T10:46:46;37.88;;;9.07;;
23670;SDS011;12012;51.998;7.614;2022-12-24T10:49:16;37.28;;;9.63;;
23670;SDS011;12012;51.998;7.614;2022-12-24T10:51:53;34.25;;;9.55;;
23670;SDS011;12012;51.998;7.614;2022-12-24T10:54:23;32.90;;;9.65;;
23670;SDS011;12012;51.998;7.614;2022-12-24T10:56:54;32.97;;;8.80;;
23670;SDS011;12012;51.998;7.614;2022-12-24T10:59:23;36.83;;;8.20;;
23670;SDS011;12012;51.998;7.614;2022-12-24T11:02:00;27.05;;;7.75;;
23670;SDS011;12012;51.998;7.614;2022-12-24T11:04:30;30.48;;;7.70;;
23670;SDS011;12012;51.998;7.614;2022-12-24T11:09:27;37.25;;;9.98;;
23670;SDS011;12012;51.998;7.614;2022-12-24T11:11:56;35.70;;;9.20;;
23670;SDS011;12012;51.998;7.614;2022-12-24T11:14:24;38.60;;;9.68;;
23670;SDS011;12012;51.998;7.614;2022-12-24T11:16:56;33.28;;;10.18;;
23670;SDS011;12012;51.998;7.614;2022-12-24T11:19:32;43.10;;;9.88;;
23670;SDS011;12012;51.998;7.614;2022-12-24T11:22:16;35.85;;;9.15;;
23670;SDS011;12012;51.998;7.614;2022-12-24T11:24:45;34.17;;;9.05;;
23670;SDS011;12012;51.998;7.614;2022-12-24T11:32:41;29.00;;;8.30;;
23670;SDS011;12012;51.998;7.614;2022-12-24T11:35:15;31.77;;;8.05;;
23670;SDS011;12012;51.998;7.614;2022-12-24T11:37:49;27.55;;;7.45;;
23670;SDS011;12012;51.998;7.614;2022-12-24T11:40:38;22.40;;;7.00;;
23670;SDS011;12012;51.998;7.614;2022-12-24T11:43:10;23.17;;;6.57;;
23670;SDS011;12012;51.998;7.614;2022-12-24T11:45:44;28.92;;;7.05;;
23670;SDS011;12012;51.998;7.614;2022-12-24T11:50:56;27.65;;;7.32;;
23670;SDS011;12012;51.998;7.614;2022-12-24T11:53:29;25.42;;;6.90;;
23670;SDS011;12012;51.998;7.614;2022-12-24T11:56:05;30.85;;;7.78;;
23670;SDS011;12012;51.998;7.614;2022-12-24T11:58:46;26.77;;;6.75;;
23670;SDS011;12012;51.998;7.614;2022-12-24T12:01:18;27.58;;;7.00;;
23670;SDS011;12012;51.998;7.614;2022-12-24T12:04:03;27.45;;;6.38;;
23670;SDS011;12012;51.998;7.614;2022-12-24T12:06:51;23.77;;;6.07;;
23670;SDS011;12012;51.998;7.614;2022-12-24T12:09:28;23.42;;;6.50;;
23670;SDS011;12012;51.998;7.614;2022-12-24T12:12:33;23.30;;;6.13;;
23670;SDS011;12012;51.998;7.614;2022-12-24T12:25:31;23.00;;;5.65;;
23670;SDS011;12012;51.998;7.614;2022-12-24T12:28:14;23.55;;;6.30;;
23670;SDS011;12012;51.998;7.614;2022-12-24T12:30:45;21.80;;;6.10;;
23670;SDS011;12012;51.998;7.614;2022-12-24T12:33:43;29.83;;;6.22;;
23670;SDS011;12012;51.998;7.614;2022-12-24T12:37:01;18.30;;;5.15;;
23670;SDS011;12012;51.998;7.614;2022-12-24T12:39:10;20.30;;;5.47;;
23670;SDS011;12012;51.998;7.614;2022-12-24T12:49:36;22.63;;;6.25;;
23670;SDS011;12012;51.998;7.614;2022-12-24T12:52:32;24.52;;;6.43;;
23670;SDS011;12012;51.998;7.614;2022-12-24T12:55:22;25.83;;;6.10;;
23670;SDS011;12012;51.998;7.614;2022-12-24T12:57:50;21.25;;;6.25;;
23670;SDS011;12012;51.998;7.614;2022-12-24T13:00:22;22.23;;;5.88;;
23670;SDS011;12012;51.998;7.614;2022-12-24T13:02:55;23.85;;;5.60;;
23670;SDS011;12012;51.998;7.614;2022-12-24T13:11:04;26.98;;;6.63;;
23670;SDS011;12012;51.998;7.614;2022-12-24T13:13:56;23.50;;;5.97;;
23670;SDS011;12012;51.998;7.614;2022-12-24T13:21:45;24.90;;;6.45;;
23670;SDS011;12012;51.998;7.614;2022-12-24T13:24:28;33.17;;;7.03;;
23670;SDS011;12012;51.998;7.614;2022-12-24T13:34:47;26.02;;;7.03;;
23670;SDS011;12012;51.998;7.614;2022-12-24T13:47:54;29.08;;;7.32;;
23670;SDS011;12012;51.998;7.614;2022-12-24T13:50:21;27.55;;;6.75;;
23670;SDS011;12012;51.998;7.614;2022-12-24T13:52:53;28.20;;;6.85;;
23670;SDS011;12012;51.998;7.614;2022-12-24T13:55:19;34.97;;;7.75;;
23670;SDS011;12012;51.998;7.614;2022-12-24T13:57:51;30.73;;;6.60;;
23670;SDS011;12012;51.998;7.614;2022-12-24T14:05:16;28.60;;;6.95;;
23670;SDS011;12012;51.998;7.614;2022-12-24T14:07:54;28.10;;;7.38;;
23670;SDS011;12012;51.998;7.614;2022-12-24T14:10:23;28.33;;;7.45;;
23670;SDS011;12012;51.998;7.614;2022-12-24T14:12:52;27.45;;;7.07;;
23670;SDS011;12012;51.998;7.614;2022-12-24T14:18:09;25.67;;;6.80;;
23670;SDS011;12012;51.998;7.614;2022-12-24T14:20:35;33.85;;;8.07;;
23670;SDS011;12012;51.998;7.614;2022-12-24T14:23:01;30.23;;;7.70;;
23670;SDS011;12012;51.998;7.614;2022-12-24T14:25:29;32.65;;;7.72;;
23670;SDS011;12012;51.998;7.614;2022-12-24T14:27:58;24.60;;;7.57;;
23670;SDS011;12012;51.998;7.614;2022-12-24T14:30:29;33.40;;;8.48;;
23670;SDS011;12012;51.998;7.614;2022-12-24T14:32:55;29.17;;;7.93;;
23670;SDS011;12012;51.998;7.614;2022-12-24T14:40:27;26.20;;;8.45;;
23670;SDS011;12012;51.998;7.614;2022-12-24T14:56:35;29.08;;;8.38;;
23670;SDS011;12012;51.998;7.614;2022-12-24T14:59:13;32.28;;;8.32;;
23670;SDS011;12012;51.998;7.614;2022-12-24T15:01:39;25.10;;;6.97;;
23670;SDS011;12012;51.998;7.614;2022-12-24T15:06:35;31.33;;;8.05;;
23670;SDS011;12012;51.998;7.614;2022-12-24T15:11:50;32.33;;;8.60;;
23670;SDS011;12012;51.998;7.614;2022-12-24T15:14:23;31.23;;;9.40;;
23670;SDS011;12012;51.998;7.614;2022-12-24T15:16:54;33.92;;;8.77;;
23670;SDS011;12012;51.998;7.614;2022-12-24T15:19:27;29.00;;;8.80;;
23670;SDS011;12012;51.998;7.614;2022-12-24T15:22:07;32.28;;;9.23;;
23670;SDS011;12012;51.998;7.614;2022-12-24T15:24:36;36.80;;;9.48;;
23670;SDS011;12012;51.998;7.614;2022-12-24T15:27:16;31.33;;;9.60;;
23670;SDS011;12012;51.998;7.614;2022-12-24T15:29:44;28.38;;;8.95;;
23670;SDS011;12012;51.998;7.614;2022-12-24T15:32:15;29.80;;;10.32;;
23670;SDS011;12012;51.998;7.614;2022-12-24T15:34:46;38.77;;;10.57;;
23670;SDS011;12012;51.998;7.614;2022-12-24T15:39:41;35.25;;;10.20;;
23670;SDS011;12012;51.998;7.614;2022-12-24T15:42:08;34.70;;;9.88;;
23670;SDS011;12012;51.998;7.614;2022-12-24T15:44:38;41.38;;;11.15;;
23670;SDS011;12012;51.998;7.614;2022-12-24T15:47:07;39.58;;;10.95;;
23670;SDS011;12012;51.998;7.614;2022-12-24T15:49:46;34.88;;;13.23;;
23670;SDS011;12012;51.998;7.614;2022-12-24T15:52:14;37.03;;;12.73;;
23670;SDS011;12012;51.998;7.614;2022-12-24T15:54:43;46.63;;;17.17;;
23670;SDS011;12012;51.998;7.614;2022-12-24T15:57:11;47.08;;;14.73;;
23670;SDS011;12012;51.998;7.614;2022-12-24T15:59:38;44.03;;;13.48;;
23670;SDS011;12012;51.998;7.614;2022-12-24T16:07:59;41.25;;;13.40;;
23670;SDS011;12012;51.998;7.614;2022-12-24T16:10:32;38.20;;;13.13;;
23670;SDS011;12012;51.998;7.614;2022-12-24T16:12:59;37.15;;;16.00;;
23670;SDS011;12012;51.998;7.614;2022-12-24T16:15:25;44.10;;;14.15;;
23670;SDS011;12012;51.998;7.614;2022-12-24T16:17:51;38.33;;;13.82;;
23670;SDS011;12012;51.998;7.614;2022-12-24T16:20:19;40.60;;;15.15;;
23670;SDS011;12012;51.998;7.614;2022-12-24T16:22:47;44.15;;;13.23;;
23670;SDS011;12012;51.998;7.614;2022-12-24T16:27:42;41.75;;;15.57;;
23670;SDS011;12012;51.998;7.614;2022-12-24T16:30:08;40.75;;;16.67;;
23670;SDS011;12012;51.998;7.614;2022-12-24T16:32:36;41.58;;;15.70;;
23670;SDS011;12012;51.998;7.614;2022-12-24T16:35:04;43.10;;;15.13;;
23670;SDS011;12012;51.998;7.614;2022-12-24T16:37:32;39.38;;;15.07;;
23670;SDS011;12012;51.998;7.614;2022-12-24T16:39:57;41.20;;;15.02;;
23670;SDS011;12012;51.998;7.614;2022-12-24T16:42:24;36.13;;;15.15;;
23670;SDS011;12012;51.998;7.614;2022-12-24T16:45:08;35.20;;;15.60;;
23670;SDS011;12012;51.998;7.614;2022-12-24T16:47:34;36.47;;;15.00;;
23670;SDS011;12012;51.998;7.614;2022-12-24T16:50:05;40.83;;;15.63;;
23670;SDS011;12012;51.998;7.614;2022-12-24T16:52:32;40.50;;;15.05;;
23670;SDS011;12012;51.998;7.614;2022-12-24T16:54:58;46.45;;;16.95;;
23670;SDS011;12012;51.998;7.614;2022-12-24T16:57:25;44.20;;;16.50;;
23670;SDS011;12012;51.998;7.614;2022-12-24T16:59:51;47.83;;;17.15;;
23670;SDS011;12012;51.998;7.614;2022-12-24T17:02:18;47.97;;;16.92;;
23670;SDS011;12012;51.998;7.614;2022-12-24T17:04:46;46.55;;;16.02;;
23670;SDS011;12012;51.998;7.614;2022-12-24T17:07:13;47.88;;;16.92;;
23670;SDS011;12012;51.998;7.614;2022-12-24T17:09:40;33.20;;;14.27;;
23670;SDS011;12012;51.998;7.614;2022-12-24T17:12:06;43.80;;;17.23;;
23670;SDS011;12012;51.998;7.614;2022-12-24T17:14:33;39.75;;;17.52;;
23670;SDS011;12012;51.998;7.614;2022-12-24T17:16:59;37.88;;;15.43;;
23670;SDS011;12012;51.998;7.614;2022-12-24T17:19:24;39.15;;;17.50;;